sensor_id;sensor_type;location;lat;lon;timestamp;P1;durP1;ratioP1;P2;durP2;ratioP2
35550;SDS011;21655;46.056;13.616;2023-05-16T00:00:19;3.10;;;0.85;;
35550;SDS011;21655;46.056;13.616;2023-05-16T00:02:45;1.30;;;0.70;;
35550;SDS011;21655;46.056;13.616;2023-05-16T00:05:11;2.40;;;0.88;;
35550;SDS011;21655;46.056;13.616;2023-05-16T00:07:44;4.97;;;0.80;;
35550;SDS011;21655;46.056;13.616;2023-05-16T00:10:10;1.20;;;0.70;;
35550;SDS011;21655;46.056;13.616;2023-05-16T00:12:36;2.55;;;0.65;;
35550;SDS011;21655;46.056;13.616;2023-05-16T00:15:03;1.73;;;0.85;;
35550;SDS011;21655;46.056;13.616;2023-05-16T00:17:36;1.50;;;0.80;;
35550;SDS011;21655;46.056;13.616;2023-05-16T00:20:02;4.28;;;0.75;;
35550;SDS011;21655;46.056;13.616;2023-05-16T00:22:32;2.53;;;0.70;;
35550;SDS011;21655;46.056;13.616;2023-05-16T00:24:57;1.92;;;0.73;;
35550;SDS011;21655;46.056;13.616;2023-05-16T00:27:23;1.88;;;0.95;;
35550;SDS011;21655;46.056;13.616;2023-05-16T00:29:48;1.65;;;0.70;;
35550;SDS011;21655;46.056;13.616;2023-05-16T00:32:14;1.58;;;0.85;;
35550;SDS011;21655;46.056;13.616;2023-05-16T00:34:39;5.63;;;1.00;;
35550;SDS011;21655;46.056;13.616;2023-05-16T00:37:05;1.45;;;0.75;;
35550;SDS011;21655;46.056;13.616;2023-05-16T00:39:30;1.40;;;0.90;;
35550;SDS011;21655;46.056;13.616;2023-05-16T00:41:56;1.10;;;0.73;;
35550;SDS011;21655;46.056;13.616;2023-05-16T00:44:21;1.40;;;0.75;;
35550;SDS011;21655;46.056;13.616;2023-05-16T00:46:47;4.45;;;0.90;;
35550;SDS011;21655;46.056;13.616;2023-05-16T00:49:12;1.60;;;0.82;;
35550;SDS011;21655;46.056;13.616;2023-05-16T00:51:38;1.58;;;0.70;;
35550;SDS011;21655;46.056;13.616;2023-05-16T00:54:04;1.73;;;0.80;;
35550;SDS011;21655;46.056;13.616;2023-05-16T00:56:29;2.42;;;1.00;;
35550;SDS011;21655;46.056;13.616;2023-05-16T00:58:55;2.45;;;0.68;;
35550;SDS011;21655;46.056;13.616;2023-05-16T01:01:22;2.10;;;0.95;;
35550;SDS011;21655;46.056;13.616;2023-05-16T01:03:49;1.50;;;0.68;;
35550;SDS011;21655;46.056;13.616;2023-05-16T01:06:14;2.13;;;0.88;;
35550;SDS011;21655;46.056;13.616;2023-05-16T01:08:40;4.90;;;0.80;;
35550;SDS011;21655;46.056;13.616;2023-05-16T01:16:33;1.40;;;0.80;;
35550;SDS011;21655;46.056;13.616;2023-05-16T01:24:24;4.05;;;0.90;;
35550;SDS011;21655;46.056;13.616;2023-05-16T01:26:57;1.92;;;0.93;;
35550;SDS011;21655;46.056;13.616;2023-05-16T01:29:24;2.38;;;1.30;;
35550;SDS011;21655;46.056;13.616;2023-05-16T01:31:49;2.95;;;1.10;;
35550;SDS011;21655;46.056;13.616;2023-05-16T01:34:15;2.20;;;1.00;;
35550;SDS011;21655;46.056;13.616;2023-05-16T01:36:47;3.15;;;1.00;;
35550;SDS011;21655;46.056;13.616;2023-05-16T01:39:44;2.80;;;0.90;;
35550;SDS011;21655;46.056;13.616;2023-05-16T01:42:16;1.67;;;0.98;;
35550;SDS011;21655;46.056;13.616;2023-05-16T01:47:13;2.17;;;1.00;;
35550;SDS011;21655;46.056;13.616;2023-05-16T01:52:35;2.40;;;0.93;;
35550;SDS011;21655;46.056;13.616;2023-05-16T01:55:07;1.92;;;0.93;;
35550;SDS011;21655;46.056;13.616;2023-05-16T01:57:36;2.85;;;1.10;;
35550;SDS011;21655;46.056;13.616;2023-05-16T02:00:03;4.38;;;0.77;;
35550;SDS011;21655;46.056;13.616;2023-05-16T02:02:29;6.20;;;1.38;;
35550;SDS011;21655;46.056;13.616;2023-05-16T02:04:55;1.55;;;0.82;;
35550;SDS011;21655;46.056;13.616;2023-05-16T02:07:20;2.80;;;0.80;;
35550;SDS011;21655;46.056;13.616;2023-05-16T02:09:46;4.10;;;0.95;;
35550;SDS011;21655;46.056;13.616;2023-05-16T02:12:12;2.75;;;1.10;;
35550;SDS011;21655;46.056;13.616;2023-05-16T02:14:37;2.88;;;0.90;;
35550;SDS011;21655;46.056;13.616;2023-05-16T02:17:02;3.20;;;0.88;;
35550;SDS011;21655;46.056;13.616;2023-05-16T02:19:28;2.38;;;1.00;;
35550;SDS011;21655;46.056;13.616;2023-05-16T02:21:53;1.83;;;1.17;;
35550;SDS011;21655;46.056;13.616;2023-05-16T02:24:19;2.30;;;0.90;;
35550;SDS011;21655;46.056;13.616;2023-05-16T02:26:44;1.70;;;0.80;;
35550;SDS011;21655;46.056;13.616;2023-05-16T02:29:09;1.98;;;1.02;;
35550;SDS011;21655;46.056;13.616;2023-05-16T02:31:35;1.35;;;0.80;;
35550;SDS011;21655;46.056;13.616;2023-05-16T02:34:00;1.75;;;1.13;;
35550;SDS011;21655;46.056;13.616;2023-05-16T02:36:26;3.53;;;1.00;;
35550;SDS011;21655;46.056;13.616;2023-05-16T02:38:52;3.22;;;0.98;;
35550;SDS011;21655;46.056;13.616;2023-05-16T02:41:18;5.55;;;1.05;;
35550;SDS011;21655;46.056;13.616;2023-05-16T02:43:46;3.70;;;0.90;;
35550;SDS011;21655;46.056;13.616;2023-05-16T02:46:19;1.60;;;0.90;;
35550;SDS011;21655;46.056;13.616;2023-05-16T02:48:52;1.90;;;0.90;;
35550;SDS011;21655;46.056;13.616;2023-05-16T02:51:21;4.07;;;1.02;;
35550;SDS011;21655;46.056;13.616;2023-05-16T02:53:48;4.50;;;0.80;;
35550;SDS011;21655;46.056;13.616;2023-05-16T02:56:14;2.65;;;1.00;;
35550;SDS011;21655;46.056;13.616;2023-05-16T02:58:39;1.52;;;0.90;;
35550;SDS011;21655;46.056;13.616;2023-05-16T03:01:05;1.27;;;0.90;;
35550;SDS011;21655;46.056;13.616;2023-05-16T03:03:31;1.45;;;0.77;;
35550;SDS011;21655;46.056;13.616;2023-05-16T03:05:59;4.63;;;1.00;;
35550;SDS011;21655;46.056;13.616;2023-05-16T03:08:24;2.85;;;0.90;;
35550;SDS011;21655;46.056;13.616;2023-05-16T03:10:50;2.75;;;0.80;;
35550;SDS011;21655;46.056;13.616;2023-05-16T03:13:15;1.52;;;0.93;;
35550;SDS011;21655;46.056;13.616;2023-05-16T03:15:41;3.22;;;1.00;;
35550;SDS011;21655;46.056;13.616;2023-05-16T03:18:06;2.15;;;1.00;;
35550;SDS011;21655;46.056;13.616;2023-05-16T03:20:32;1.77;;;1.00;;
35550;SDS011;21655;46.056;13.616;2023-05-16T03:22:57;2.03;;;0.90;;
35550;SDS011;21655;46.056;13.616;2023-05-16T03:25:23;3.22;;;0.98;;
35550;SDS011;21655;46.056;13.616;2023-05-16T03:27:48;2.40;;;0.90;;
35550;SDS011;21655;46.056;13.616;2023-05-16T03:30:14;1.50;;;0.90;;
35550;SDS011;21655;46.056;13.616;2023-05-16T03:32:40;4.20;;;1.30;;
35550;SDS011;21655;46.056;13.616;2023-05-16T03:35:05;2.22;;;1.15;;
35550;SDS011;21655;46.056;13.616;2023-05-16T03:37:31;3.05;;;1.00;;
35550;SDS011;21655;46.056;13.616;2023-05-16T03:39:56;3.55;;;1.10;;
35550;SDS011;21655;46.056;13.616;2023-05-16T03:42:22;4.30;;;1.20;;
35550;SDS011;21655;46.056;13.616;2023-05-16T03:44:47;4.05;;;1.20;;
35550;SDS011;21655;46.056;13.616;2023-05-16T03:47:13;3.20;;;1.00;;
35550;SDS011;21655;46.056;13.616;2023-05-16T03:49:38;2.05;;;1.15;;
35550;SDS011;21655;46.056;13.616;2023-05-16T03:52:04;2.45;;;1.02;;
35550;SDS011;21655;46.056;13.616;2023-05-16T03:54:30;2.33;;;1.00;;
35550;SDS011;21655;46.056;13.616;2023-05-16T03:56:55;2.97;;;1.10;;
35550;SDS011;21655;46.056;13.616;2023-05-16T03:59:21;2.13;;;1.10;;
35550;SDS011;21655;46.056;13.616;2023-05-16T04:01:46;2.00;;;1.13;;
35550;SDS011;21655;46.056;13.616;2023-05-16T04:04:13;2.08;;;1.10;;
35550;SDS011;21655;46.056;13.616;2023-05-16T04:06:39;3.25;;;1.17;;
35550;SDS011;21655;46.056;13.616;2023-05-16T04:09:04;3.83;;;1.20;;
35550;SDS011;21655;46.056;13.616;2023-05-16T04:11:30;2.00;;;1.10;;
35550;SDS011;21655;46.056;13.616;2023-05-16T04:13:56;3.60;;;1.10;;
35550;SDS011;21655;46.056;13.616;2023-05-16T04:16:23;3.78;;;1.13;;
35550;SDS011;21655;46.056;13.616;2023-05-16T04:18:48;4.18;;;1.25;;
35550;SDS011;21655;46.056;13.616;2023-05-16T04:21:14;2.22;;;1.20;;
35550;SDS011;21655;46.056;13.616;2023-05-16T04:23:40;6.15;;;1.20;;
35550;SDS011;21655;46.056;13.616;2023-05-16T04:26:05;1.83;;;0.93;;
35550;SDS011;21655;46.056;13.616;2023-05-16T04:28:31;6.38;;;1.70;;
35550;SDS011;21655;46.056;13.616;2023-05-16T04:30:57;2.75;;;1.30;;
35550;SDS011;21655;46.056;13.616;2023-05-16T04:33:22;1.92;;;1.10;;
35550;SDS011;21655;46.056;13.616;2023-05-16T04:35:48;3.85;;;1.10;;
35550;SDS011;21655;46.056;13.616;2023-05-16T04:38:13;3.55;;;1.08;;
35550;SDS011;21655;46.056;13.616;2023-05-16T04:40:39;1.80;;;1.05;;
35550;SDS011;21655;46.056;13.616;2023-05-16T04:43:05;1.92;;;1.10;;
35550;SDS011;21655;46.056;13.616;2023-05-16T04:45:32;3.80;;;1.10;;
35550;SDS011;21655;46.056;13.616;2023-05-16T04:47:57;4.15;;;1.30;;
35550;SDS011;21655;46.056;13.616;2023-05-16T04:50:22;2.65;;;1.20;;
35550;SDS011;21655;46.056;13.616;2023-05-16T04:52:48;3.33;;;1.00;;
35550;SDS011;21655;46.056;13.616;2023-05-16T04:55:13;3.25;;;1.00;;
35550;SDS011;21655;46.056;13.616;2023-05-16T04:57:39;3.63;;;1.27;;
35550;SDS011;21655;46.056;13.616;2023-05-16T05:00:05;2.60;;;1.20;;
35550;SDS011;21655;46.056;13.616;2023-05-16T05:02:36;2.33;;;1.17;;
35550;SDS011;21655;46.056;13.616;2023-05-16T05:05:02;3.85;;;1.35;;
35550;SDS011;21655;46.056;13.616;2023-05-16T05:07:28;2.67;;;1.17;;
35550;SDS011;21655;46.056;13.616;2023-05-16T05:09:53;6.65;;;1.40;;
35550;SDS011;21655;46.056;13.616;2023-05-16T05:12:20;2.10;;;1.20;;
35550;SDS011;21655;46.056;13.616;2023-05-16T05:14:46;2.33;;;1.20;;
35550;SDS011;21655;46.056;13.616;2023-05-16T05:17:11;4.28;;;1.25;;
35550;SDS011;21655;46.056;13.616;2023-05-16T05:19:37;2.67;;;1.17;;
35550;SDS011;21655;46.056;13.616;2023-05-16T05:22:02;6.88;;;1.77;;
35550;SDS011;21655;46.056;13.616;2023-05-16T05:24:27;3.78;;;1.58;;
35550;SDS011;21655;46.056;13.616;2023-05-16T05:26:53;4.68;;;1.60;;
35550;SDS011;21655;46.056;13.616;2023-05-16T05:29:18;5.28;;;1.60;;
35550;SDS011;21655;46.056;13.616;2023-05-16T05:31:44;3.45;;;1.50;;
35550;SDS011;21655;46.056;13.616;2023-05-16T05:34:09;3.08;;;1.50;;
35550;SDS011;21655;46.056;13.616;2023-05-16T05:36:35;3.60;;;1.58;;
35550;SDS011;21655;46.056;13.616;2023-05-16T05:39:00;2.45;;;1.45;;
35550;SDS011;21655;46.056;13.616;2023-05-16T05:41:25;3.53;;;1.70;;
35550;SDS011;21655;46.056;13.616;2023-05-16T05:43:51;2.90;;;1.40;;
35550;SDS011;21655;46.056;13.616;2023-05-16T05:46:16;7.63;;;1.77;;
35550;SDS011;21655;46.056;13.616;2023-05-16T05:48:42;6.97;;;1.90;;
35550;SDS011;21655;46.056;13.616;2023-05-16T05:51:07;2.75;;;1.70;;
35550;SDS011;21655;46.056;13.616;2023-05-16T05:53:33;3.55;;;1.50;;
35550;SDS011;21655;46.056;13.616;2023-05-16T05:55:58;4.32;;;1.67;;
35550;SDS011;21655;46.056;13.616;2023-05-16T05:58:24;3.67;;;1.45;;
35550;SDS011;21655;46.056;13.616;2023-05-16T06:00:49;2.67;;;1.40;;
35550;SDS011;21655;46.056;13.616;2023-05-16T06:03:15;2.78;;;1.20;;
35550;SDS011;21655;46.056;13.616;2023-05-16T06:05:41;2.35;;;1.40;;
35550;SDS011;21655;46.056;13.616;2023-05-16T06:08:06;3.70;;;1.60;;
35550;SDS011;21655;46.056;13.616;2023-05-16T06:10:31;3.80;;;1.80;;
35550;SDS011;21655;46.056;13.616;2023-05-16T06:12:57;3.47;;;2.00;;
35550;SDS011;21655;46.056;13.616;2023-05-16T06:15:23;2.53;;;1.73;;
35550;SDS011;21655;46.056;13.616;2023-05-16T06:17:49;2.33;;;1.42;;
35550;SDS011;21655;46.056;13.616;2023-05-16T06:20:15;2.08;;;1.30;;
35550;SDS011;21655;46.056;13.616;2023-05-16T06:22:40;4.70;;;2.08;;
35550;SDS011;21655;46.056;13.616;2023-05-16T06:25:06;4.75;;;1.75;;
35550;SDS011;21655;46.056;13.616;2023-05-16T06:27:32;4.63;;;1.67;;
35550;SDS011;21655;46.056;13.616;2023-05-16T06:29:57;3.10;;;1.20;;
35550;SDS011;21655;46.056;13.616;2023-05-16T06:32:23;2.38;;;1.33;;
35550;SDS011;21655;46.056;13.616;2023-05-16T06:34:48;9.18;;;2.28;;
35550;SDS011;21655;46.056;13.616;2023-05-16T06:37:14;3.08;;;1.50;;
35550;SDS011;21655;46.056;13.616;2023-05-16T06:39:39;5.15;;;1.65;;
35550;SDS011;21655;46.056;13.616;2023-05-16T06:42:05;3.60;;;1.48;;
35550;SDS011;21655;46.056;13.616;2023-05-16T06:44:31;4.78;;;1.63;;
35550;SDS011;21655;46.056;13.616;2023-05-16T06:46:56;5.90;;;1.70;;
35550;SDS011;21655;46.056;13.616;2023-05-16T06:49:21;3.40;;;1.35;;
35550;SDS011;21655;46.056;13.616;2023-05-16T06:51:47;6.97;;;1.40;;
35550;SDS011;21655;46.056;13.616;2023-05-16T06:54:13;3.17;;;1.42;;
35550;SDS011;21655;46.056;13.616;2023-05-16T06:56:39;7.95;;;1.55;;
35550;SDS011;21655;46.056;13.616;2023-05-16T06:59:04;2.70;;;1.20;;
35550;SDS011;21655;46.056;13.616;2023-05-16T07:01:29;2.53;;;1.20;;
35550;SDS011;21655;46.056;13.616;2023-05-16T07:03:55;5.63;;;1.52;;
35550;SDS011;21655;46.056;13.616;2023-05-16T07:06:21;4.30;;;1.40;;
35550;SDS011;21655;46.056;13.616;2023-05-16T07:08:46;3.28;;;1.20;;
35550;SDS011;21655;46.056;13.616;2023-05-16T07:11:12;2.00;;;0.98;;
35550;SDS011;21655;46.056;13.616;2023-05-16T07:13:38;4.35;;;1.27;;
35550;SDS011;21655;46.056;13.616;2023-05-16T07:16:03;4.50;;;1.33;;
35550;SDS011;21655;46.056;13.616;2023-05-16T07:18:29;3.25;;;0.98;;
35550;SDS011;21655;46.056;13.616;2023-05-16T07:20:54;0.95;;;0.68;;
35550;SDS011;21655;46.056;13.616;2023-05-16T07:23:20;6.00;;;1.42;;
35550;SDS011;21655;46.056;13.616;2023-05-16T07:25:46;3.05;;;0.90;;
35550;SDS011;21655;46.056;13.616;2023-05-16T07:28:12;6.38;;;1.05;;
35550;SDS011;21655;46.056;13.616;2023-05-16T07:30:37;3.50;;;0.93;;
35550;SDS011;21655;46.056;13.616;2023-05-16T07:33:03;2.72;;;1.10;;
35550;SDS011;21655;46.056;13.616;2023-05-16T07:35:28;4.53;;;1.20;;
35550;SDS011;21655;46.056;13.616;2023-05-16T07:37:54;2.30;;;0.80;;
35550;SDS011;21655;46.056;13.616;2023-05-16T07:40:19;3.38;;;0.82;;
35550;SDS011;21655;46.056;13.616;2023-05-16T07:42:49;1.95;;;1.13;;
35550;SDS011;21655;46.056;13.616;2023-05-16T07:45:15;5.28;;;1.33;;
35550;SDS011;21655;46.056;13.616;2023-05-16T07:47:41;3.80;;;1.20;;
35550;SDS011;21655;46.056;13.616;2023-05-16T07:50:06;1.77;;;0.90;;
35550;SDS011;21655;46.056;13.616;2023-05-16T07:52:32;5.55;;;1.23;;
35550;SDS011;21655;46.056;13.616;2023-05-16T07:54:57;4.00;;;1.48;;
35550;SDS011;21655;46.056;13.616;2023-05-16T07:57:23;2.45;;;1.23;;
35550;SDS011;21655;46.056;13.616;2023-05-16T07:59:48;2.85;;;1.40;;
35550;SDS011;21655;46.056;13.616;2023-05-16T08:02:16;4.95;;;1.60;;
35550;SDS011;21655;46.056;13.616;2023-05-16T08:04:41;3.97;;;1.67;;
35550;SDS011;21655;46.056;13.616;2023-05-16T08:07:07;4.25;;;1.20;;
35550;SDS011;21655;46.056;13.616;2023-05-16T08:09:32;3.05;;;1.20;;
35550;SDS011;21655;46.056;13.616;2023-05-16T08:11:58;2.40;;;0.88;;
35550;SDS011;21655;46.056;13.616;2023-05-16T08:14:27;2.28;;;1.30;;
35550;SDS011;21655;46.056;13.616;2023-05-16T08:16:54;3.85;;;1.30;;
35550;SDS011;21655;46.056;13.616;2023-05-16T08:19:20;2.50;;;1.20;;
35550;SDS011;21655;46.056;13.616;2023-05-16T08:21:45;2.38;;;0.90;;
35550;SDS011;21655;46.056;13.616;2023-05-16T08:24:11;2.10;;;0.90;;
35550;SDS011;21655;46.056;13.616;2023-05-16T08:26:36;3.25;;;1.15;;
35550;SDS011;21655;46.056;13.616;2023-05-16T08:29:02;3.63;;;1.30;;
35550;SDS011;21655;46.056;13.616;2023-05-16T08:31:28;8.93;;;1.60;;
35550;SDS011;21655;46.056;13.616;2023-05-16T08:33:54;4.18;;;1.50;;
35550;SDS011;21655;46.056;13.616;2023-05-16T08:36:19;4.03;;;1.00;;
35550;SDS011;21655;46.056;13.616;2023-05-16T08:38:45;5.05;;;1.13;;
35550;SDS011;21655;46.056;13.616;2023-05-16T08:41:12;5.00;;;1.30;;
35550;SDS011;21655;46.056;13.616;2023-05-16T08:43:37;3.33;;;1.20;;
35550;SDS011;21655;46.056;13.616;2023-05-16T08:46:03;1.80;;;0.90;;
35550;SDS011;21655;46.056;13.616;2023-05-16T08:48:31;1.50;;;0.80;;
35550;SDS011;21655;46.056;13.616;2023-05-16T08:50:59;5.40;;;1.15;;
35550;SDS011;21655;46.056;13.616;2023-05-16T08:53:30;4.28;;;1.02;;
35550;SDS011;21655;46.056;13.616;2023-05-16T08:55:58;2.78;;;0.80;;
35550;SDS011;21655;46.056;13.616;2023-05-16T08:58:24;1.67;;;0.85;;
35550;SDS011;21655;46.056;13.616;2023-05-16T09:00:52;1.58;;;0.95;;
35550;SDS011;21655;46.056;13.616;2023-05-16T09:03:18;2.08;;;0.80;;
35550;SDS011;21655;46.056;13.616;2023-05-16T09:05:45;2.67;;;1.05;;
35550;SDS011;21655;46.056;13.616;2023-05-16T09:08:11;1.33;;;0.65;;
35550;SDS011;21655;46.056;13.616;2023-05-16T09:10:36;1.42;;;0.63;;
35550;SDS011;21655;46.056;13.616;2023-05-16T09:13:02;0.82;;;0.50;;
35550;SDS011;21655;46.056;13.616;2023-05-16T09:15:31;1.10;;;0.60;;
35550;SDS011;21655;46.056;13.616;2023-05-16T09:18:01;2.78;;;0.60;;
35550;SDS011;21655;46.056;13.616;2023-05-16T09:20:27;1.40;;;0.65;;
35550;SDS011;21655;46.056;13.616;2023-05-16T09:22:56;3.80;;;0.70;;
35550;SDS011;21655;46.056;13.616;2023-05-16T09:25:27;2.72;;;0.60;;
35550;SDS011;21655;46.056;13.616;2023-05-16T09:27:56;1.92;;;0.60;;
35550;SDS011;21655;46.056;13.616;2023-05-16T09:30:23;2.78;;;0.60;;
35550;SDS011;21655;46.056;13.616;2023-05-16T09:32:52;1.55;;;0.50;;
35550;SDS011;21655;46.056;13.616;2023-05-16T09:35:18;2.03;;;0.60;;
35550;SDS011;21655;46.056;13.616;2023-05-16T09:37:48;3.13;;;0.55;;
35550;SDS011;21655;46.056;13.616;2023-05-16T09:40:19;1.02;;;0.40;;
35550;SDS011;21655;46.056;13.616;2023-05-16T09:42:45;4.68;;;0.90;;
35550;SDS011;21655;46.056;13.616;2023-05-16T09:45:11;1.50;;;0.60;;
35550;SDS011;21655;46.056;13.616;2023-05-16T09:47:38;2.60;;;0.60;;
35550;SDS011;21655;46.056;13.616;2023-05-16T09:50:10;1.55;;;0.50;;
35550;SDS011;21655;46.056;13.616;2023-05-16T09:52:37;1.90;;;0.60;;
35550;SDS011;21655;46.056;13.616;2023-05-16T09:55:05;1.42;;;0.70;;
35550;SDS011;21655;46.056;13.616;2023-05-16T09:57:32;4.97;;;0.60;;
35550;SDS011;21655;46.056;13.616;2023-05-16T09:59:58;1.67;;;0.60;;
35550;SDS011;21655;46.056;13.616;2023-05-16T10:02:25;7.80;;;1.55;;
35550;SDS011;21655;46.056;13.616;2023-05-16T10:04:51;3.15;;;0.80;;
35550;SDS011;21655;46.056;13.616;2023-05-16T10:07:17;3.30;;;0.70;;
35550;SDS011;21655;46.056;13.616;2023-05-16T10:09:45;5.80;;;0.70;;
35550;SDS011;21655;46.056;13.616;2023-05-16T10:12:13;1.63;;;0.60;;
35550;SDS011;21655;46.056;13.616;2023-05-16T10:14:40;1.70;;;0.60;;
35550;SDS011;21655;46.056;13.616;2023-05-16T10:17:07;2.83;;;0.63;;
35550;SDS011;21655;46.056;13.616;2023-05-16T10:19:37;2.47;;;0.65;;
35550;SDS011;21655;46.056;13.616;2023-05-16T10:22:04;5.57;;;0.80;;
35550;SDS011;21655;46.056;13.616;2023-05-16T10:24:46;7.35;;;1.25;;
35550;SDS011;21655;46.056;13.616;2023-05-16T10:27:19;3.63;;;0.80;;
35550;SDS011;21655;46.056;13.616;2023-05-16T10:29:45;3.42;;;0.80;;
35550;SDS011;21655;46.056;13.616;2023-05-16T10:32:10;5.68;;;0.90;;
35550;SDS011;21655;46.056;13.616;2023-05-16T10:34:38;5.97;;;0.60;;
35550;SDS011;21655;46.056;13.616;2023-05-16T10:37:04;1.83;;;0.60;;
35550;SDS011;21655;46.056;13.616;2023-05-16T10:39:31;1.45;;;0.60;;
35550;SDS011;21655;46.056;13.616;2023-05-16T10:41:57;0.90;;;0.52;;
35550;SDS011;21655;46.056;13.616;2023-05-16T10:44:24;5.32;;;1.30;;
35550;SDS011;21655;46.056;13.616;2023-05-16T10:46:50;3.38;;;0.80;;
35550;SDS011;21655;46.056;13.616;2023-05-16T10:49:22;1.02;;;0.50;;
35550;SDS011;21655;46.056;13.616;2023-05-16T10:52:10;3.70;;;0.87;;
35550;SDS011;21655;46.056;13.616;2023-05-16T10:54:41;3.40;;;0.70;;
35550;SDS011;21655;46.056;13.616;2023-05-16T10:57:10;7.63;;;1.30;;
35550;SDS011;21655;46.056;13.616;2023-05-16T10:59:44;2.60;;;0.90;;
35550;SDS011;21655;46.056;13.616;2023-05-16T11:04:49;1.42;;;0.63;;
35550;SDS011;21655;46.056;13.616;2023-05-16T11:07:17;1.85;;;0.80;;
35550;SDS011;21655;46.056;13.616;2023-05-16T11:09:44;4.47;;;0.88;;
35550;SDS011;21655;46.056;13.616;2023-05-16T11:12:11;5.30;;;1.00;;
35550;SDS011;21655;46.056;13.616;2023-05-16T11:14:37;3.25;;;1.02;;
35550;SDS011;21655;46.056;13.616;2023-05-16T11:17:10;2.47;;;0.90;;
35550;SDS011;21655;46.056;13.616;2023-05-16T11:24:47;3.40;;;1.08;;
35550;SDS011;21655;46.056;13.616;2023-05-16T11:27:38;4.03;;;1.10;;
35550;SDS011;21655;46.056;13.616;2023-05-16T11:32:35;2.45;;;1.00;;
35550;SDS011;21655;46.056;13.616;2023-05-16T11:35:02;2.25;;;1.00;;
35550;SDS011;21655;46.056;13.616;2023-05-16T11:37:29;5.75;;;1.02;;
35550;SDS011;21655;46.056;13.616;2023-05-16T11:39:58;4.18;;;1.15;;
35550;SDS011;21655;46.056;13.616;2023-05-16T11:42:27;4.88;;;1.05;;
35550;SDS011;21655;46.056;13.616;2023-05-16T11:47:36;4.97;;;1.27;;
35550;SDS011;21655;46.056;13.616;2023-05-16T11:50:06;2.45;;;1.10;;
35550;SDS011;21655;46.056;13.616;2023-05-16T11:52:36;5.47;;;1.63;;
35550;SDS011;21655;46.056;13.616;2023-05-16T11:55:05;3.65;;;1.38;;
35550;SDS011;21655;46.056;13.616;2023-05-16T11:57:34;4.60;;;1.13;;
35550;SDS011;21655;46.056;13.616;2023-05-16T12:00:03;6.70;;;1.52;;
35550;SDS011;21655;46.056;13.616;2023-05-16T12:02:35;5.28;;;1.30;;
35550;SDS011;21655;46.056;13.616;2023-05-16T12:05:05;4.07;;;1.15;;
35550;SDS011;21655;46.056;13.616;2023-05-16T12:07:33;2.97;;;1.05;;
35550;SDS011;21655;46.056;13.616;2023-05-16T12:10:03;6.10;;;1.52;;
35550;SDS011;21655;46.056;13.616;2023-05-16T12:12:32;4.28;;;1.63;;
35550;SDS011;21655;46.056;13.616;2023-05-16T12:14:58;3.05;;;1.70;;
35550;SDS011;21655;46.056;13.616;2023-05-16T12:17:23;5.13;;;1.40;;
35550;SDS011;21655;46.056;13.616;2023-05-16T12:19:49;5.20;;;1.50;;
35550;SDS011;21655;46.056;13.616;2023-05-16T12:22:15;2.78;;;1.60;;
35550;SDS011;21655;46.056;13.616;2023-05-16T12:24:44;5.22;;;1.33;;
35550;SDS011;21655;46.056;13.616;2023-05-16T12:27:10;4.10;;;1.20;;
35550;SDS011;21655;46.056;13.616;2023-05-16T12:29:36;2.50;;;1.30;;
35550;SDS011;21655;46.056;13.616;2023-05-16T12:32:02;3.58;;;1.27;;
35550;SDS011;21655;46.056;13.616;2023-05-16T12:34:28;4.80;;;1.10;;
35550;SDS011;21655;46.056;13.616;2023-05-16T12:36:54;2.28;;;1.00;;
35550;SDS011;21655;46.056;13.616;2023-05-16T12:39:20;3.85;;;1.40;;
35550;SDS011;21655;46.056;13.616;2023-05-16T12:41:47;3.17;;;1.30;;
35550;SDS011;21655;46.056;13.616;2023-05-16T12:44:14;4.25;;;1.52;;
35550;SDS011;21655;46.056;13.616;2023-05-16T12:46:44;2.30;;;0.77;;
35550;SDS011;21655;46.056;13.616;2023-05-16T12:49:19;3.15;;;1.15;;
35550;SDS011;21655;46.056;13.616;2023-05-16T12:51:50;2.40;;;1.20;;
35550;SDS011;21655;46.056;13.616;2023-05-16T12:54:17;2.75;;;0.95;;
35550;SDS011;21655;46.056;13.616;2023-05-16T12:56:43;6.55;;;1.52;;
35550;SDS011;21655;46.056;13.616;2023-05-16T12:59:09;2.55;;;0.95;;
35550;SDS011;21655;46.056;13.616;2023-05-16T13:01:36;3.10;;;1.10;;
35550;SDS011;21655;46.056;13.616;2023-05-16T13:04:02;3.05;;;1.00;;
35550;SDS011;21655;46.056;13.616;2023-05-16T13:06:28;3.53;;;1.20;;
35550;SDS011;21655;46.056;13.616;2023-05-16T13:08:54;3.60;;;1.27;;
35550;SDS011;21655;46.056;13.616;2023-05-16T13:11:20;2.83;;;1.60;;
35550;SDS011;21655;46.056;13.616;2023-05-16T13:13:45;3.20;;;1.40;;
35550;SDS011;21655;46.056;13.616;2023-05-16T13:16:11;6.05;;;2.13;;
35550;SDS011;21655;46.056;13.616;2023-05-16T13:18:36;6.13;;;2.30;;
35550;SDS011;21655;46.056;13.616;2023-05-16T13:21:02;3.95;;;1.70;;
35550;SDS011;21655;46.056;13.616;2023-05-16T13:23:30;3.95;;;1.17;;
35550;SDS011;21655;46.056;13.616;2023-05-16T13:25:57;3.35;;;1.40;;
35550;SDS011;21655;46.056;13.616;2023-05-16T13:28:23;4.47;;;1.30;;
35550;SDS011;21655;46.056;13.616;2023-05-16T13:30:49;3.13;;;1.08;;
35550;SDS011;21655;46.056;13.616;2023-05-16T13:33:15;3.38;;;1.00;;
35550;SDS011;21655;46.056;13.616;2023-05-16T13:35:41;4.13;;;1.10;;
35550;SDS011;21655;46.056;13.616;2023-05-16T13:38:07;4.50;;;1.23;;
35550;SDS011;21655;46.056;13.616;2023-05-16T13:40:32;4.28;;;1.00;;
35550;SDS011;21655;46.056;13.616;2023-05-16T13:42:58;1.75;;;1.02;;
35550;SDS011;21655;46.056;13.616;2023-05-16T13:45:25;4.00;;;1.30;;
35550;SDS011;21655;46.056;13.616;2023-05-16T13:47:51;4.30;;;1.45;;
35550;SDS011;21655;46.056;13.616;2023-05-16T13:50:16;5.10;;;2.20;;
35550;SDS011;21655;46.056;13.616;2023-05-16T13:52:42;5.85;;;1.60;;
35550;SDS011;21655;46.056;13.616;2023-05-16T13:55:08;6.68;;;1.50;;
35550;SDS011;21655;46.056;13.616;2023-05-16T13:57:34;3.13;;;1.10;;
35550;SDS011;21655;46.056;13.616;2023-05-16T14:00:00;2.67;;;1.02;;
35550;SDS011;21655;46.056;13.616;2023-05-16T14:02:25;2.20;;;1.00;;
35550;SDS011;21655;46.056;13.616;2023-05-16T14:04:51;2.28;;;0.70;;
35550;SDS011;21655;46.056;13.616;2023-05-16T14:07:17;2.83;;;0.90;;
35550;SDS011;21655;46.056;13.616;2023-05-16T14:09:42;1.75;;;1.02;;
35550;SDS011;21655;46.056;13.616;2023-05-16T14:12:09;2.33;;;1.10;;
35550;SDS011;21655;46.056;13.616;2023-05-16T14:14:34;2.85;;;0.90;;
35550;SDS011;21655;46.056;13.616;2023-05-16T14:17:00;2.08;;;1.02;;
35550;SDS011;21655;46.056;13.616;2023-05-16T14:19:27;3.45;;;1.17;;
35550;SDS011;21655;46.056;13.616;2023-05-16T14:21:53;2.80;;;1.00;;
35550;SDS011;21655;46.056;13.616;2023-05-16T14:24:19;2.08;;;1.27;;
35550;SDS011;21655;46.056;13.616;2023-05-16T14:26:45;3.22;;;1.10;;
35550;SDS011;21655;46.056;13.616;2023-05-16T14:29:10;2.30;;;0.90;;
35550;SDS011;21655;46.056;13.616;2023-05-16T14:31:37;2.85;;;1.27;;
35550;SDS011;21655;46.056;13.616;2023-05-16T14:34:02;3.03;;;1.40;;
35550;SDS011;21655;46.056;13.616;2023-05-16T14:36:28;6.10;;;1.25;;
35550;SDS011;21655;46.056;13.616;2023-05-16T14:38:53;2.85;;;1.10;;
35550;SDS011;21655;46.056;13.616;2023-05-16T14:41:20;1.92;;;1.20;;
35550;SDS011;21655;46.056;13.616;2023-05-16T14:43:46;3.17;;;0.80;;
35550;SDS011;21655;46.056;13.616;2023-05-16T14:46:12;3.70;;;0.98;;
35550;SDS011;21655;46.056;13.616;2023-05-16T14:48:37;1.52;;;0.75;;
35550;SDS011;21655;46.056;13.616;2023-05-16T14:51:03;8.95;;;1.25;;
35550;SDS011;21655;46.056;13.616;2023-05-16T14:53:29;2.75;;;0.90;;
35550;SDS011;21655;46.056;13.616;2023-05-16T14:55:55;3.17;;;0.90;;
35550;SDS011;21655;46.056;13.616;2023-05-16T14:58:20;3.08;;;0.77;;